sensor_id;sensor_type;location;lat;lon;timestamp;P1;durP1;ratioP1;P2;durP2;ratioP2
77880;SDS011;67077;50.298;18.996;2023-03-23T00:01:05;45.90;;;20.70;;
77880;SDS011;67077;50.298;18.996;2023-03-23T00:03:36;41.70;;;19.40;;
77880;SDS011;67077;50.298;18.996;2023-03-23T00:06:03;40.30;;;19.90;;
77880;SDS011;67077;50.298;18.996;2023-03-23T00:08:34;36.70;;;19.90;;
77880;SDS011;67077;50.298;18.996;2023-03-23T00:11:16;37.00;;;20.00;;
77880;SDS011;67077;50.298;18.996;2023-03-23T00:13:46;36.70;;;19.40;;
77880;SDS011;67077;50.298;18.996;2023-03-23T00:16:14;33.90;;;18.80;;
77880;SDS011;67077;50.298;18.996;2023-03-23T00:18:47;36.00;;;18.70;;
77880;SDS011;67077;50.298;18.996;2023-03-23T00:21:19;32.80;;;17.60;;
77880;SDS011;67077;50.298;18.996;2023-03-23T00:23:47;33.80;;;17.50;;
77880;SDS011;67077;50.298;18.996;2023-03-23T00:26:14;31.90;;;16.60;;
77880;SDS011;67077;50.298;18.996;2023-03-23T00:28:40;29.30;;;16.60;;
77880;SDS011;67077;50.298;18.996;2023-03-23T00:31:08;28.40;;;16.00;;
77880;SDS011;67077;50.298;18.996;2023-03-23T00:33:36;27.60;;;14.90;;
77880;SDS011;67077;50.298;18.996;2023-03-23T00:36:09;29.30;;;15.50;;
77880;SDS011;67077;50.298;18.996;2023-03-23T00:39:03;31.50;;;16.10;;
77880;SDS011;67077;50.298;18.996;2023-03-23T00:41:30;31.20;;;15.80;;
77880;SDS011;67077;50.298;18.996;2023-03-23T00:43:59;28.70;;;16.40;;
77880;SDS011;67077;50.298;18.996;2023-03-23T00:46:28;29.90;;;16.80;;
77880;SDS011;67077;50.298;18.996;2023-03-23T00:48:55;33.10;;;17.20;;
77880;SDS011;67077;50.298;18.996;2023-03-23T00:51:23;31.30;;;16.40;;
77880;SDS011;67077;50.298;18.996;2023-03-23T00:53:50;28.40;;;15.00;;
77880;SDS011;67077;50.298;18.996;2023-03-23T00:56:17;28.70;;;16.40;;
77880;SDS011;67077;50.298;18.996;2023-03-23T00:58:44;26.30;;;15.70;;
77880;SDS011;67077;50.298;18.996;2023-03-23T01:01:11;30.10;;;16.90;;
77880;SDS011;67077;50.298;18.996;2023-03-23T01:03:38;29.00;;;16.20;;
77880;SDS011;67077;50.298;18.996;2023-03-23T01:06:05;29.50;;;16.60;;
77880;SDS011;67077;50.298;18.996;2023-03-23T01:08:39;27.50;;;15.10;;
77880;SDS011;67077;50.298;18.996;2023-03-23T01:11:15;27.10;;;15.30;;
77880;SDS011;67077;50.298;18.996;2023-03-23T01:13:42;31.60;;;16.90;;
77880;SDS011;67077;50.298;18.996;2023-03-23T01:16:10;28.70;;;15.30;;
77880;SDS011;67077;50.298;18.996;2023-03-23T01:18:37;26.30;;;14.70;;
77880;SDS011;67077;50.298;18.996;2023-03-23T01:21:10;24.80;;;14.60;;
77880;SDS011;67077;50.298;18.996;2023-03-23T01:23:38;29.30;;;15.90;;
77880;SDS011;67077;50.298;18.996;2023-03-23T01:26:06;31.00;;;15.10;;
77880;SDS011;67077;50.298;18.996;2023-03-23T01:28:35;27.30;;;15.20;;
77880;SDS011;67077;50.298;18.996;2023-03-23T01:31:03;27.20;;;16.00;;
77880;SDS011;67077;50.298;18.996;2023-03-23T01:33:32;27.40;;;16.60;;
77880;SDS011;67077;50.298;18.996;2023-03-23T01:36:03;31.30;;;17.60;;
77880;SDS011;67077;50.298;18.996;2023-03-23T01:38:32;28.30;;;17.20;;
77880;SDS011;67077;50.298;18.996;2023-03-23T01:41:01;30.40;;;17.10;;
77880;SDS011;67077;50.298;18.996;2023-03-23T01:43:29;27.30;;;15.80;;
77880;SDS011;67077;50.298;18.996;2023-03-23T01:45:56;25.90;;;16.30;;
77880;SDS011;67077;50.298;18.996;2023-03-23T01:53:22;30.00;;;17.00;;
77880;SDS011;67077;50.298;18.996;2023-03-23T01:55:51;29.20;;;17.00;;
77880;SDS011;67077;50.298;18.996;2023-03-23T01:58:21;28.60;;;17.40;;
77880;SDS011;67077;50.298;18.996;2023-03-23T02:00:54;28.30;;;16.10;;
77880;SDS011;67077;50.298;18.996;2023-03-23T02:03:25;27.30;;;16.00;;
77880;SDS011;67077;50.298;18.996;2023-03-23T02:05:53;28.10;;;17.20;;
77880;SDS011;67077;50.298;18.996;2023-03-23T02:08:21;26.70;;;16.50;;
77880;SDS011;67077;50.298;18.996;2023-03-23T02:10:49;29.70;;;17.60;;
77880;SDS011;67077;50.298;18.996;2023-03-23T02:13:15;28.70;;;16.80;;
77880;SDS011;67077;50.298;18.996;2023-03-23T02:30:14;30.40;;;18.20;;
77880;SDS011;67077;50.298;18.996;2023-03-23T02:35:46;26.20;;;15.90;;
77880;SDS011;67077;50.298;18.996;2023-03-23T02:38:22;27.30;;;15.30;;
77880;SDS011;67077;50.298;18.996;2023-03-23T02:40:56;27.60;;;15.40;;
77880;SDS011;67077;50.298;18.996;2023-03-23T02:43:27;25.10;;;15.60;;
77880;SDS011;67077;50.298;18.996;2023-03-23T02:45:59;28.70;;;16.20;;
77880;SDS011;67077;50.298;18.996;2023-03-23T02:48:28;23.20;;;14.60;;
77880;SDS011;67077;50.298;18.996;2023-03-23T02:50:56;22.60;;;13.00;;
77880;SDS011;67077;50.298;18.996;2023-03-23T02:53:26;20.00;;;12.70;;
77880;SDS011;67077;50.298;18.996;2023-03-23T02:55:57;19.60;;;11.90;;
77880;SDS011;67077;50.298;18.996;2023-03-23T02:58:24;19.90;;;11.70;;
77880;SDS011;67077;50.298;18.996;2023-03-23T03:00:51;20.50;;;11.50;;
77880;SDS011;67077;50.298;18.996;2023-03-23T03:03:23;17.40;;;11.20;;
77880;SDS011;67077;50.298;18.996;2023-03-23T03:11:16;19.60;;;11.00;;
77880;SDS011;67077;50.298;18.996;2023-03-23T03:13:52;18.70;;;10.20;;
77880;SDS011;67077;50.298;18.996;2023-03-23T03:19:12;18.10;;;10.90;;
77880;SDS011;67077;50.298;18.996;2023-03-23T03:21:47;19.10;;;10.90;;
77880;SDS011;67077;50.298;18.996;2023-03-23T03:24:17;20.80;;;11.10;;
77880;SDS011;67077;50.298;18.996;2023-03-23T03:26:47;20.40;;;11.20;;
77880;SDS011;67077;50.298;18.996;2023-03-23T03:29:16;20.70;;;11.20;;
77880;SDS011;67077;50.298;18.996;2023-03-23T03:31:46;17.70;;;10.50;;
77880;SDS011;67077;50.298;18.996;2023-03-23T03:34:16;17.80;;;11.10;;
77880;SDS011;67077;50.298;18.996;2023-03-23T03:36:44;18.50;;;10.10;;
77880;SDS011;67077;50.298;18.996;2023-03-23T03:39:12;19.90;;;10.80;;
77880;SDS011;67077;50.298;18.996;2023-03-23T03:41:42;18.80;;;11.30;;
77880;SDS011;67077;50.298;18.996;2023-03-23T03:44:08;17.00;;;11.00;;
77880;SDS011;67077;50.298;18.996;2023-03-23T03:46:36;19.90;;;11.00;;
77880;SDS011;67077;50.298;18.996;2023-03-23T03:49:04;19.10;;;10.50;;
77880;SDS011;67077;50.298;18.996;2023-03-23T03:51:34;15.40;;;9.70;;
77880;SDS011;67077;50.298;18.996;2023-03-23T03:54:01;17.80;;;9.60;;
77880;SDS011;67077;50.298;18.996;2023-03-23T03:56:28;20.50;;;10.50;;
77880;SDS011;67077;50.298;18.996;2023-03-23T03:58:55;19.60;;;10.90;;
77880;SDS011;67077;50.298;18.996;2023-03-23T04:01:21;19.50;;;10.90;;
77880;SDS011;67077;50.298;18.996;2023-03-23T04:03:48;20.90;;;10.90;;
77880;SDS011;67077;50.298;18.996;2023-03-23T04:06:16;19.20;;;11.30;;
77880;SDS011;67077;50.298;18.996;2023-03-23T04:08:44;19.00;;;11.30;;
77880;SDS011;67077;50.298;18.996;2023-03-23T04:11:12;21.00;;;10.40;;
77880;SDS011;67077;50.298;18.996;2023-03-23T04:13:40;18.80;;;10.50;;
77880;SDS011;67077;50.298;18.996;2023-03-23T04:16:07;22.40;;;11.50;;
77880;SDS011;67077;50.298;18.996;2023-03-23T04:18:35;19.20;;;10.50;;
77880;SDS011;67077;50.298;18.996;2023-03-23T04:21:02;23.10;;;10.90;;
77880;SDS011;67077;50.298;18.996;2023-03-23T04:23:29;20.70;;;11.40;;
77880;SDS011;67077;50.298;18.996;2023-03-23T04:25:59;24.40;;;11.90;;
77880;SDS011;67077;50.298;18.996;2023-03-23T04:28:26;24.50;;;12.00;;
77880;SDS011;67077;50.298;18.996;2023-03-23T04:30:54;26.60;;;12.70;;
77880;SDS011;67077;50.298;18.996;2023-03-23T04:33:22;22.50;;;11.80;;
77880;SDS011;67077;50.298;18.996;2023-03-23T04:35:51;30.70;;;13.00;;
77880;SDS011;67077;50.298;18.996;2023-03-23T04:38:19;24.90;;;12.30;;
77880;SDS011;67077;50.298;18.996;2023-03-23T04:40:47;25.10;;;12.00;;
77880;SDS011;67077;50.298;18.996;2023-03-23T04:43:21;23.80;;;11.90;;
77880;SDS011;67077;50.298;18.996;2023-03-23T04:45:53;24.50;;;12.20;;
77880;SDS011;67077;50.298;18.996;2023-03-23T04:50:53;24.40;;;11.60;;
77880;SDS011;67077;50.298;18.996;2023-03-23T04:53:20;25.20;;;13.00;;
77880;SDS011;67077;50.298;18.996;2023-03-23T04:55:48;23.20;;;11.50;;
77880;SDS011;67077;50.298;18.996;2023-03-23T04:58:15;25.50;;;12.60;;
77880;SDS011;67077;50.298;18.996;2023-03-23T05:00:42;25.00;;;12.00;;
77880;SDS011;67077;50.298;18.996;2023-03-23T05:03:10;26.10;;;10.80;;
77880;SDS011;67077;50.298;18.996;2023-03-23T05:05:37;22.50;;;11.30;;
77880;SDS011;67077;50.298;18.996;2023-03-23T05:08:04;23.70;;;11.10;;
77880;SDS011;67077;50.298;18.996;2023-03-23T05:10:30;22.10;;;11.10;;
77880;SDS011;67077;50.298;18.996;2023-03-23T05:12:57;19.60;;;10.70;;
77880;SDS011;67077;50.298;18.996;2023-03-23T05:15:23;21.60;;;10.70;;
77880;SDS011;67077;50.298;18.996;2023-03-23T05:17:53;16.80;;;10.30;;
77880;SDS011;67077;50.298;18.996;2023-03-23T05:20:20;18.70;;;10.20;;
77880;SDS011;67077;50.298;18.996;2023-03-23T05:22:48;19.50;;;10.50;;
77880;SDS011;67077;50.298;18.996;2023-03-23T05:25:16;17.60;;;9.00;;
77880;SDS011;67077;50.298;18.996;2023-03-23T05:27:48;15.40;;;9.00;;
77880;SDS011;67077;50.298;18.996;2023-03-23T05:30:19;18.50;;;9.00;;
77880;SDS011;67077;50.298;18.996;2023-03-23T05:32:48;20.90;;;9.60;;
77880;SDS011;67077;50.298;18.996;2023-03-23T05:35:18;18.40;;;10.00;;
77880;SDS011;67077;50.298;18.996;2023-03-23T05:37:45;17.20;;;9.50;;
77880;SDS011;67077;50.298;18.996;2023-03-23T05:40:12;16.70;;;9.40;;
77880;SDS011;67077;50.298;18.996;2023-03-23T05:42:40;17.90;;;9.90;;
77880;SDS011;67077;50.298;18.996;2023-03-23T05:45:08;16.00;;;9.10;;
77880;SDS011;67077;50.298;18.996;2023-03-23T05:47:37;15.20;;;8.20;;
77880;SDS011;67077;50.298;18.996;2023-03-23T05:50:05;16.40;;;8.80;;
77880;SDS011;67077;50.298;18.996;2023-03-23T05:52:35;15.60;;;8.90;;
77880;SDS011;67077;50.298;18.996;2023-03-23T05:55:03;15.70;;;8.60;;
77880;SDS011;67077;50.298;18.996;2023-03-23T05:57:30;19.20;;;9.00;;
77880;SDS011;67077;50.298;18.996;2023-03-23T05:59:57;14.90;;;8.20;;
77880;SDS011;67077;50.298;18.996;2023-03-23T06:02:25;18.10;;;9.30;;
77880;SDS011;67077;50.298;18.996;2023-03-23T06:04:55;13.50;;;8.40;;
77880;SDS011;67077;50.298;18.996;2023-03-23T06:07:23;15.50;;;8.60;;
77880;SDS011;67077;50.298;18.996;2023-03-23T06:09:51;16.50;;;8.80;;
77880;SDS011;67077;50.298;18.996;2023-03-23T06:12:20;18.20;;;8.10;;
77880;SDS011;67077;50.298;18.996;2023-03-23T06:14:47;17.30;;;8.40;;
77880;SDS011;67077;50.298;18.996;2023-03-23T06:17:15;13.60;;;7.40;;
77880;SDS011;67077;50.298;18.996;2023-03-23T06:19:43;14.10;;;8.30;;
77880;SDS011;67077;50.298;18.996;2023-03-23T06:22:13;15.20;;;8.50;;
77880;SDS011;67077;50.298;18.996;2023-03-23T06:24:40;14.80;;;8.60;;
77880;SDS011;67077;50.298;18.996;2023-03-23T06:27:07;13.90;;;8.40;;
77880;SDS011;67077;50.298;18.996;2023-03-23T06:29:36;15.50;;;8.50;;
77880;SDS011;67077;50.298;18.996;2023-03-23T06:32:03;18.80;;;8.10;;
77880;SDS011;67077;50.298;18.996;2023-03-23T06:34:31;14.80;;;8.10;;
77880;SDS011;67077;50.298;18.996;2023-03-23T06:37:01;16.10;;;8.40;;
77880;SDS011;67077;50.298;18.996;2023-03-23T06:39:28;14.00;;;8.70;;
77880;SDS011;67077;50.298;18.996;2023-03-23T06:41:56;14.00;;;8.70;;
77880;SDS011;67077;50.298;18.996;2023-03-23T06:44:25;13.80;;;7.90;;
77880;SDS011;67077;50.298;18.996;2023-03-23T06:46:52;14.00;;;8.20;;
77880;SDS011;67077;50.298;18.996;2023-03-23T06:49:18;14.70;;;8.00;;
77880;SDS011;67077;50.298;18.996;2023-03-23T06:51:45;16.20;;;8.70;;
77880;SDS011;67077;50.298;18.996;2023-03-23T06:54:11;12.90;;;7.80;;
77880;SDS011;67077;50.298;18.996;2023-03-23T06:56:38;17.30;;;8.00;;
77880;SDS011;67077;50.298;18.996;2023-03-23T06:59:05;13.70;;;8.10;;
77880;SDS011;67077;50.298;18.996;2023-03-23T07:01:31;13.50;;;7.30;;
77880;SDS011;67077;50.298;18.996;2023-03-23T07:03:58;14.90;;;7.60;;
77880;SDS011;67077;50.298;18.996;2023-03-23T07:06:25;11.60;;;7.00;;
77880;SDS011;67077;50.298;18.996;2023-03-23T07:08:52;11.50;;;6.70;;
77880;SDS011;67077;50.298;18.996;2023-03-23T07:11:19;14.20;;;7.30;;
77880;SDS011;67077;50.298;18.996;2023-03-23T07:13:45;14.70;;;6.50;;
77880;SDS011;67077;50.298;18.996;2023-03-23T07:16:12;11.00;;;6.50;;
77880;SDS011;67077;50.298;18.996;2023-03-23T07:18:39;11.30;;;6.60;;
77880;SDS011;67077;50.298;18.996;2023-03-23T07:21:06;11.50;;;6.90;;
77880;SDS011;67077;50.298;18.996;2023-03-23T07:23:32;11.40;;;6.30;;
77880;SDS011;67077;50.298;18.996;2023-03-23T07:25:59;11.80;;;6.60;;
77880;SDS011;67077;50.298;18.996;2023-03-23T07:28:26;10.70;;;6.00;;
77880;SDS011;67077;50.298;18.996;2023-03-23T07:30:53;12.80;;;6.40;;
77880;SDS011;67077;50.298;18.996;2023-03-23T07:33:19;12.80;;;6.50;;
77880;SDS011;67077;50.298;18.996;2023-03-23T07:35:46;11.70;;;6.80;;
77880;SDS011;67077;50.298;18.996;2023-03-23T07:38:14;10.10;;;6.60;;
77880;SDS011;67077;50.298;18.996;2023-03-23T07:40:41;10.50;;;6.60;;
77880;SDS011;67077;50.298;18.996;2023-03-23T07:43:07;12.20;;;7.20;;
77880;SDS011;67077;50.298;18.996;2023-03-23T07:45:34;13.70;;;7.20;;
77880;SDS011;67077;50.298;18.996;2023-03-23T07:48:01;13.80;;;6.90;;
77880;SDS011;67077;50.298;18.996;2023-03-23T07:50:28;12.40;;;7.10;;
77880;SDS011;67077;50.298;18.996;2023-03-23T07:52:55;12.70;;;7.30;;
77880;SDS011;67077;50.298;18.996;2023-03-23T07:55:24;13.30;;;7.00;;
77880;SDS011;67077;50.298;18.996;2023-03-23T07:57:52;15.20;;;8.00;;
77880;SDS011;67077;50.298;18.996;2023-03-23T08:00:20;14.30;;;8.00;;
77880;SDS011;67077;50.298;18.996;2023-03-23T08:02:53;13.50;;;7.50;;
77880;SDS011;67077;50.298;18.996;2023-03-23T08:05:22;14.90;;;7.90;;
77880;SDS011;67077;50.298;18.996;2023-03-23T08:07:52;12.10;;;7.40;;
77880;SDS011;67077;50.298;18.996;2023-03-23T08:10:23;12.70;;;7.10;;
77880;SDS011;67077;50.298;18.996;2023-03-23T08:12:53;15.00;;;8.30;;
77880;SDS011;67077;50.298;18.996;2023-03-23T08:15:21;16.80;;;8.10;;
77880;SDS011;67077;50.298;18.996;2023-03-23T08:17:49;15.90;;;8.50;;
77880;SDS011;67077;50.298;18.996;2023-03-23T08:20:17;16.00;;;8.60;;
77880;SDS011;67077;50.298;18.996;2023-03-23T08:22:49;13.90;;;7.60;;
77880;SDS011;67077;50.298;18.996;2023-03-23T08:25:19;16.20;;;8.30;;
77880;SDS011;67077;50.298;18.996;2023-03-23T08:27:46;19.10;;;9.20;;
77880;SDS011;67077;50.298;18.996;2023-03-23T08:30:14;18.20;;;8.30;;
77880;SDS011;67077;50.298;18.996;2023-03-23T08:32:43;16.90;;;7.50;;
77880;SDS011;67077;50.298;18.996;2023-03-23T08:35:10;16.10;;;7.60;;
77880;SDS011;67077;50.298;18.996;2023-03-23T08:37:37;13.10;;;7.10;;
77880;SDS011;67077;50.298;18.996;2023-03-23T08:40:05;12.30;;;7.50;;
77880;SDS011;67077;50.298;18.996;2023-03-23T08:42:34;16.20;;;7.00;;
77880;SDS011;67077;50.298;18.996;2023-03-23T08:45:02;13.60;;;6.50;;
77880;SDS011;67077;50.298;18.996;2023-03-23T08:47:30;13.10;;;6.20;;
77880;SDS011;67077;50.298;18.996;2023-03-23T08:49:58;11.00;;;6.20;;
77880;SDS011;67077;50.298;18.996;2023-03-23T08:52:26;9.70;;;6.10;;
77880;SDS011;67077;50.298;18.996;2023-03-23T08:54:54;14.20;;;6.80;;
77880;SDS011;67077;50.298;18.996;2023-03-23T08:57:21;11.30;;;6.50;;
77880;SDS011;67077;50.298;18.996;2023-03-23T08:59:49;13.20;;;7.00;;
77880;SDS011;67077;50.298;18.996;2023-03-23T09:02:16;14.90;;;6.60;;
77880;SDS011;67077;50.298;18.996;2023-03-23T09:04:44;12.00;;;6.60;;
77880;SDS011;67077;50.298;18.996;2023-03-23T09:07:11;10.70;;;5.90;;
77880;SDS011;67077;50.298;18.996;2023-03-23T09:09:41;12.90;;;5.70;;
77880;SDS011;67077;50.298;18.996;2023-03-23T09:12:09;12.80;;;5.90;;
77880;SDS011;67077;50.298;18.996;2023-03-23T09:14:37;10.20;;;6.00;;
77880;SDS011;67077;50.298;18.996;2023-03-23T09:17:05;11.40;;;6.10;;
77880;SDS011;67077;50.298;18.996;2023-03-23T09:19:34;12.10;;;6.20;;
77880;SDS011;67077;50.298;18.996;2023-03-23T09:22:01;12.20;;;6.00;;
77880;SDS011;67077;50.298;18.996;2023-03-23T09:24:29;12.90;;;6.10;;
77880;SDS011;67077;50.298;18.996;2023-03-23T09:26:56;11.70;;;6.30;;
77880;SDS011;67077;50.298;18.996;2023-03-23T09:29:25;12.50;;;6.00;;
77880;SDS011;67077;50.298;18.996;2023-03-23T09:31:53;14.40;;;6.70;;
77880;SDS011;67077;50.298;18.996;2023-03-23T09:34:20;13.60;;;6.60;;
77880;SDS011;67077;50.298;18.996;2023-03-23T09:36:54;12.10;;;5.70;;
77880;SDS011;67077;50.298;18.996;2023-03-23T09:39:37;16.40;;;6.60;;
77880;SDS011;67077;50.298;18.996;2023-03-23T09:42:23;15.50;;;7.40;;
77880;SDS011;67077;50.298;18.996;2023-03-23T09:50:37;13.60;;;6.30;;
77880;SDS011;67077;50.298;18.996;2023-03-23T09:56:01;14.10;;;6.40;;
77880;SDS011;67077;50.298;18.996;2023-03-23T09:58:39;13.70;;;6.20;;
77880;SDS011;67077;50.298;18.996;2023-03-23T10:04:36;12.20;;;5.70;;
77880;SDS011;67077;50.298;18.996;2023-03-23T10:07:10;11.80;;;6.00;;
77880;SDS011;67077;50.298;18.996;2023-03-23T10:09:38;17.20;;;6.00;;
77880;SDS011;67077;50.298;18.996;2023-03-23T10:12:10;14.00;;;6.20;;
77880;SDS011;67077;50.298;18.996;2023-03-23T10:18:46;12.40;;;5.60;;
77880;SDS011;67077;50.298;18.996;2023-03-23T10:20:58;12.90;;;5.20;;
77880;SDS011;67077;50.298;18.996;2023-03-23T10:26:58;11.10;;;5.20;;
77880;SDS011;67077;50.298;18.996;2023-03-23T10:29:25;9.80;;;5.30;;
77880;SDS011;67077;50.298;18.996;2023-03-23T10:31:58;12.80;;;5.10;;
77880;SDS011;67077;50.298;18.996;2023-03-23T10:37:18;12.10;;;5.40;;
77880;SDS011;67077;50.298;18.996;2023-03-23T10:39:53;10.50;;;5.00;;
77880;SDS011;67077;50.298;18.996;2023-03-23T10:42:27;8.80;;;4.30;;
77880;SDS011;67077;50.298;18.996;2023-03-23T10:45:21;13.00;;;4.70;;
77880;SDS011;67077;50.298;18.996;2023-03-23T10:47:57;9.00;;;4.30;;
77880;SDS011;67077;50.298;18.996;2023-03-23T10:50:31;10.80;;;4.50;;
77880;SDS011;67077;50.298;18.996;2023-03-23T10:53:01;8.90;;;4.60;;
77880;SDS011;67077;50.298;18.996;2023-03-23T10:55:39;10.60;;;4.50;;
77880;SDS011;67077;50.298;18.996;2023-03-23T10:58:11;11.30;;;4.10;;
77880;SDS011;67077;50.298;18.996;2023-03-23T11:00:49;9.10;;;4.70;;
77880;SDS011;67077;50.298;18.996;2023-03-23T11:06:11;8.80;;;4.00;;
77880;SDS011;67077;50.298;18.996;2023-03-23T11:08:49;7.90;;;4.30;;
77880;SDS011;67077;50.298;18.996;2023-03-23T11:11:28;8.90;;;4.40;;
77880;SDS011;67077;50.298;18.996;2023-03-23T11:14:12;8.00;;;4.20;;
77880;SDS011;67077;50.298;18.996;2023-03-23T11:16:44;11.70;;;5.00;;
77880;SDS011;67077;50.298;18.996;2023-03-23T11:19:21;9.60;;;4.10;;
77880;SDS011;67077;50.298;18.996;2023-03-23T11:21:51;11.50;;;4.50;;
77880;SDS011;67077;50.298;18.996;2023-03-23T11:24:24;10.60;;;4.50;;
77880;SDS011;67077;50.298;18.996;2023-03-23T11:26:53;11.00;;;4.50;;
77880;SDS011;67077;50.298;18.996;2023-03-23T11:29:24;10.70;;;4.30;;
77880;SDS011;67077;50.298;18.996;2023-03-23T11:32:01;12.80;;;5.00;;
77880;SDS011;67077;50.298;18.996;2023-03-23T11:34:43;10.60;;;4.70;;
77880;SDS011;67077;50.298;18.996;2023-03-23T11:39:47;8.20;;;4.60;;
77880;SDS011;67077;50.298;18.996;2023-03-23T11:42:24;7.40;;;4.60;;
77880;SDS011;67077;50.298;18.996;2023-03-23T11:51:12;9.50;;;4.60;;
77880;SDS011;67077;50.298;18.996;2023-03-23T11:56:46;9.00;;;4.20;;
77880;SDS011;67077;50.298;18.996;2023-03-23T11:59:15;9.20;;;4.30;;
77880;SDS011;67077;50.298;18.996;2023-03-23T12:10:59;8.80;;;5.00;;
77880;SDS011;67077;50.298;18.996;2023-03-23T12:13:40;8.70;;;3.90;;
77880;SDS011;67077;50.298;18.996;2023-03-23T12:16:30;11.10;;;4.80;;
77880;SDS011;67077;50.298;18.996;2023-03-23T12:19:24;9.90;;;4.70;;
77880;SDS011;67077;50.298;18.996;2023-03-23T12:21:58;9.30;;;4.50;;
77880;SDS011;67077;50.298;18.996;2023-03-23T12:24:37;13.30;;;6.60;;
77880;SDS011;67077;50.298;18.996;2023-03-23T12:27:16;10.90;;;5.20;;
77880;SDS011;67077;50.298;18.996;2023-03-23T12:43:52;8.80;;;4.40;;
77880;SDS011;67077;50.298;18.996;2023-03-23T12:49:26;9.20;;;5.50;;
77880;SDS011;67077;50.298;18.996;2023-03-23T12:52:16;12.60;;;5.40;;
77880;SDS011;67077;50.298;18.996;2023-03-23T12:54:49;8.80;;;5.00;;
77880;SDS011;67077;50.298;18.996;2023-03-23T12:59:55;12.50;;;4.90;;
77880;SDS011;67077;50.298;18.996;2023-03-23T13:03:03;9.80;;;4.90;;
77880;SDS011;67077;50.298;18.996;2023-03-23T13:05:42;12.70;;;5.80;;
77880;SDS011;67077;50.298;18.996;2023-03-23T13:08:30;11.10;;;5.50;;
77880;SDS011;67077;50.298;18.996;2023-03-23T13:11:03;11.50;;;5.10;;
77880;SDS011;67077;50.298;18.996;2023-03-23T13:13:45;9.90;;;4.80;;
77880;SDS011;67077;50.298;18.996;2023-03-23T13:16:26;11.80;;;5.20;;
77880;SDS011;67077;50.298;18.996;2023-03-23T13:24:35;10.40;;;5.00;;
77880;SDS011;67077;50.298;18.996;2023-03-23T13:27:06;8.40;;;4.00;;
77880;SDS011;67077;50.298;18.996;2023-03-23T13:29:43;7.20;;;4.10;;
77880;SDS011;67077;50.298;18.996;2023-03-23T13:32:18;9.40;;;4.20;;
77880;SDS011;67077;50.298;18.996;2023-03-23T13:34:46;11.90;;;4.80;;
77880;SDS011;67077;50.298;18.996;2023-03-23T13:37:26;8.60;;;4.60;;
77880;SDS011;67077;50.298;18.996;2023-03-23T13:40:19;10.20;;;4.50;;
77880;SDS011;67077;50.298;18.996;2023-03-23T13:42:52;9.30;;;4.50;;
77880;SDS011;67077;50.298;18.996;2023-03-23T13:48:04;10.50;;;4.60;;
77880;SDS011;67077;50.298;18.996;2023-03-23T13:50:44;9.60;;;3.70;;
77880;SDS011;67077;50.298;18.996;2023-03-23T13:53:20;7.80;;;4.20;;
77880;SDS011;67077;50.298;18.996;2023-03-23T13:55:51;8.10;;;4.50;;
77880;SDS011;67077;50.298;18.996;2023-03-23T13:58:30;6.00;;;3.60;;
77880;SDS011;67077;50.298;18.996;2023-03-23T14:03:36;10.70;;;3.80;;
77880;SDS011;67077;50.298;18.996;2023-03-23T14:06:06;6.80;;;4.00;;
77880;SDS011;67077;50.298;18.996;2023-03-23T14:08:40;6.70;;;4.30;;
77880;SDS011;67077;50.298;18.996;2023-03-23T14:13:41;7.60;;;4.30;;
77880;SDS011;67077;50.298;18.996;2023-03-23T14:18:53;7.60;;;4.60;;
77880;SDS011;67077;50.298;18.996;2023-03-23T14:21:25;11.20;;;4.40;;
77880;SDS011;67077;50.298;18.996;2023-03-23T14:24:05;11.00;;;4.50;;
77880;SDS011;67077;50.298;18.996;2023-03-23T14:26:37;8.50;;;4.30;;
77880;SDS011;67077;50.298;18.996;2023-03-23T14:29:04;11.40;;;5.00;;
77880;SDS011;67077;50.298;18.996;2023-03-23T14:31:32;10.40;;;4.90;;
77880;SDS011;67077;50.298;18.996;2023-03-23T14:34:01;9.40;;;5.00;;
77880;SDS011;67077;50.298;18.996;2023-03-23T14:36:30;13.70;;;5.40;;
77880;SDS011;67077;50.298;18.996;2023-03-23T14:39:43;10.00;;;5.20;;
77880;SDS011;67077;50.298;18.996;2023-03-23T14:41:53;9.90;;;5.30;;
77880;SDS011;67077;50.298;18.996;2023-03-23T14:44:23;8.60;;;4.80;;
77880;SDS011;67077;50.298;18.996;2023-03-23T14:46:54;10.40;;;5.30;;
77880;SDS011;67077;50.298;18.996;2023-03-23T14:49:31;9.60;;;5.20;;
77880;SDS011;67077;50.298;18.996;2023-03-23T14:52:03;11.00;;;5.20;;
77880;SDS011;67077;50.298;18.996;2023-03-23T14:54:50;11.70;;;5.20;;
77880;SDS011;67077;50.298;18.996;2023-03-23T14:57:18;9.10;;;4.80;;
77880;SDS011;67077;50.298;18.996;2023-03-23T14:59:52;10.40;;;5.80;;
77880;SDS011;67077;50.298;18.996;2023-03-23T15:02:30;11.10;;;5.40;;
77880;SDS011;67077;50.298;18.996;2023-03-23T15:05:10;13.20;;;6.00;;
77880;SDS011;67077;50.298;18.996;2023-03-23T15:07:41;12.50;;;6.00;;
77880;SDS011;67077;50.298;18.996;2023-03-23T15:10:18;10.60;;;5.90;;
77880;SDS011;67077;50.298;18.996;2023-03-23T15:12:47;14.00;;;6.00;;
77880;SDS011;67077;50.298;18.996;2023-03-23T15:15:19;12.30;;;5.90;;
77880;SDS011;67077;50.298;18.996;2023-03-23T15:17:47;11.70;;;6.40;;
77880;SDS011;67077;50.298;18.996;2023-03-23T15:20:45;13.30;;;6.50;;
77880;SDS011;67077;50.298;18.996;2023-03-23T15:23:15;12.50;;;6.20;;
77880;SDS011;67077;50.298;18.996;2023-03-23T15:25:50;13.20;;;6.10;;
77880;SDS011;67077;50.298;18.996;2023-03-23T15:28:27;14.90;;;7.20;;
77880;SDS011;67077;50.298;18.996;2023-03-23T15:31:02;13.40;;;7.00;;
77880;SDS011;67077;50.298;18.996;2023-03-23T15:33:38;15.20;;;7.10;;
77880;SDS011;67077;50.298;18.996;2023-03-23T15:36:24;14.20;;;6.90;;
77880;SDS011;67077;50.298;18.996;2023-03-23T15:38:51;15.90;;;7.00;;
77880;SDS011;67077;50.298;18.996;2023-03-23T15:41:24;13.60;;;7.10;;
77880;SDS011;67077;50.298;18.996;2023-03-23T15:43:54;12.90;;;6.90;;
77880;SDS011;67077;50.298;18.996;2023-03-23T15:46:28;15.70;;;7.70;;
77880;SDS011;67077;50.298;18.996;2023-03-23T15:51:28;13.80;;;7.20;;
77880;SDS011;67077;50.298;18.996;2023-03-23T15:53:56;16.50;;;7.60;;
77880;SDS011;67077;50.298;18.996;2023-03-23T15:56:25;17.30;;;7.10;;
77880;SDS011;67077;50.298;18.996;2023-03-23T15:58:55;17.20;;;8.00;;
77880;SDS011;67077;50.298;18.996;2023-03-23T16:01:27;15.80;;;7.30;;
77880;SDS011;67077;50.298;18.996;2023-03-23T16:03:58;16.60;;;7.80;;
77880;SDS011;67077;50.298;18.996;2023-03-23T16:06:30;18.70;;;7.60;;
77880;SDS011;67077;50.298;18.996;2023-03-23T16:08:58;18.90;;;8.20;;
77880;SDS011;67077;50.298;18.996;2023-03-23T16:11:26;19.30;;;7.90;;
77880;SDS011;67077;50.298;18.996;2023-03-23T16:13:55;14.40;;;7.80;;
77880;SDS011;67077;50.298;18.996;2023-03-23T16:16:22;14.30;;;7.20;;
77880;SDS011;67077;50.298;18.996;2023-03-23T16:21:21;13.90;;;6.10;;
77880;SDS011;67077;50.298;18.996;2023-03-23T16:23:48;14.10;;;6.40;;
77880;SDS011;67077;50.298;18.996;2023-03-23T16:26:15;12.90;;;5.80;;
77880;SDS011;67077;50.298;18.996;2023-03-23T16:28:42;14.40;;;5.50;;
77880;SDS011;67077;50.298;18.996;2023-03-23T16:31:09;9.50;;;5.40;;
77880;SDS011;67077;50.298;18.996;2023-03-23T16:33:36;9.10;;;5.60;;
77880;SDS011;67077;50.298;18.996;2023-03-23T16:36:03;12.20;;;5.60;;
77880;SDS011;67077;50.298;18.996;2023-03-23T16:38:31;11.90;;;6.00;;